Time;durP1;ratioP1;P1;durP2;ratioP2;P2;SDS_P1;SDS_P2;PMS_P1;PMS_P2;Temp;Humidity;BMP_temperature;BMP_pressure;BME280_temperature;BME280_humidity;BME280_pressure;Samples;Min_cycle;Max_cycle;Signal;HPM_P1;HPM_P2
2021/12/25 00:02:22;;;;;;;11.43;4.13;;;1.10;99.90;;;;;;5029715;28;20497;-64
2021/12/25 00:04:48;;;;;;;9.07;4.03;;;1.10;99.90;;;;;;5030865;28;20029;-64
2021/12/25 00:07:13;;;;;;;8.95;3.70;;;1.10;99.90;;;;;;5030783;28;20152;-64
2021/12/25 00:09:39;;;;;;;8.15;3.67;;;1.10;99.90;;;;;;5030826;28;20033;-66
2021/12/25 00:12:05;;;;;;;8.55;3.60;;;1.10;99.90;;;;;;5029527;28;20124;-64
2021/12/25 00:14:30;;;;;;;11.90;3.88;;;1.00;99.90;;;;;;5028974;28;20671;-65
2021/12/25 00:16:58;;;;;;;9.45;4.00;;;1.00;99.90;;;;;;5030744;28;20084;-64
2021/12/25 00:19:24;;;;;;;9.23;3.88;;;1.00;99.90;;;;;;5030677;28;20049;-65
2021/12/25 00:21:49;;;;;;;8.35;3.28;;;1.00;99.90;;;;;;5030607;28;20055;-66
2021/12/25 00:24:15;;;;;;;10.07;3.25;;;0.90;99.90;;;;;;5030363;28;20048;-64
2021/12/25 00:34:35;;;;;;;8.75;3.10;;;0.90;99.90;;;;;;5030306;28;20045;-64
2021/12/25 00:37:00;;;;;;;6.65;3.20;;;0.90;99.90;;;;;;5028962;28;20053;-64
2021/12/25 00:39:29;;;;;;;6.43;3.15;;;0.90;99.90;;;;;;5030001;28;20041;-65
2021/12/25 00:41:59;;;;;;;9.35;3.45;;;0.80;99.90;;;;;;5030329;28;20049;-65
2021/12/25 00:44:25;;;;;;;10.05;3.40;;;0.80;99.90;;;;;;5030206;28;20052;-64
2021/12/25 00:46:51;;;;;;;7.45;2.95;;;0.80;99.90;;;;;;5028750;28;20037;-65
2021/12/25 00:49:17;;;;;;;10.82;2.97;;;0.70;99.90;;;;;;5030111;28;20030;-65
2021/12/25 00:51:42;;;;;;;8.43;3.38;;;0.70;99.90;;;;;;5029671;28;20537;-64
2021/12/25 00:54:09;;;;;;;7.03;2.90;;;0.70;99.90;;;;;;5030182;28;20040;-65
2021/12/25 00:56:35;;;;;;;5.47;2.90;;;0.60;99.90;;;;;;5030055;28;20175;-64
2021/12/25 00:59:00;;;;;;;6.53;2.70;;;0.60;99.90;;;;;;5028010;28;20041;-66
2021/12/25 01:01:26;;;;;;;6.43;3.00;;;0.60;99.90;;;;;;5029686;28;20077;-65
2021/12/25 01:03:51;;;;;;;9.05;2.80;;;0.50;99.90;;;;;;5028534;28;20668;-64
2021/12/25 01:06:17;;;;;;;6.25;3.00;;;0.50;99.90;;;;;;5029685;28;20041;-65
2021/12/25 01:08:42;;;;;;;5.22;2.40;;;0.50;99.90;;;;;;5029931;28;20029;-65
2021/12/25 01:11:08;;;;;;;6.05;2.55;;;0.40;99.90;;;;;;5028729;28;20053;-64
2021/12/25 01:13:43;;;;;;;7.28;2.97;;;0.40;99.90;;;;;;5029385;28;20403;-64
2021/12/25 01:23:54;;;;;;;10.43;2.88;;;0.20;99.90;;;;;;5028230;28;20095;-64
2021/12/25 01:42:08;;;;;;;6.35;2.67;;;0.10;99.90;;;;;;5029253;28;20049;-64
2021/12/25 01:49:58;;;;;;;4.43;2.50;;;0.00;99.90;;;;;;5028436;28;20053;-64
2021/12/25 01:52:29;;;;;;;7.80;2.65;;;-0.10;99.90;;;;;;5027655;28;20051;-66
2021/12/25 01:54:58;;;;;;;;;;;-0.10;99.90;;;;;;5029873;28;20382;-64
2021/12/25 01:57:24;;;;;;;8.05;2.40;;;-0.20;99.90;;;;;;5029441;28;20292;-65
2021/12/25 01:59:50;;;;;;;5.55;2.50;;;-0.20;99.90;;;;;;5028145;28;20046;-63
2021/12/25 02:02:16;;;;;;;5.07;2.60;;;-0.30;99.90;;;;;;5029190;28;20072;-64
2021/12/25 02:04:42;;;;;;;6.80;2.58;;;-0.30;99.90;;;;;;5027897;28;20045;-65
2021/12/25 02:07:08;;;;;;;5.18;2.50;;;-0.30;99.90;;;;;;5029162;28;20505;-66
2021/12/25 02:09:34;;;;;;;5.15;2.60;;;-0.40;99.90;;;;;;5029294;28;20049;-64
2021/12/25 02:12:00;;;;;;;5.82;2.15;;;-0.50;99.90;;;;;;5031884;28;20048;-64
2021/12/25 02:14:26;;;;;;;5.00;2.58;;;-0.50;99.90;;;;;;5031439;28;20045;-64
2021/12/25 02:20:14;;;;;;;6.63;2.50;;;-0.60;99.90;;;;;;4955319;28;20066;-64
2021/12/25 02:22:40;;;;;;;5.53;2.22;;;-0.60;99.90;;;;;;5028398;28;20540;-64
2021/12/25 02:25:06;;;;;;;3.83;2.00;;;-0.60;99.90;;;;;;5031404;28;20061;-64
2021/12/25 02:27:32;;;;;;;7.60;2.80;;;-0.70;99.90;;;;;;5032746;28;20033;-64
2021/12/25 02:29:57;;;;;;;4.60;2.05;;;-0.70;99.90;;;;;;5031390;28;20038;-64
2021/12/25 02:32:23;;;;;;;9.35;2.50;;;-0.80;99.90;;;;;;5031146;28;20038;-67
2021/12/25 02:34:49;;;;;;;6.90;2.38;;;-0.80;99.90;;;;;;5032610;28;20167;-66
2021/12/25 02:37:15;;;;;;;7.65;2.25;;;-0.80;99.90;;;;;;5031148;28;20421;-64
2021/12/25 02:39:41;;;;;;;5.25;2.20;;;-0.90;99.90;;;;;;5032744;28;20052;-64
2021/12/25 02:42:07;;;;;;;6.07;2.20;;;-0.90;99.90;;;;;;5032206;28;20042;-64
2021/12/25 02:44:32;;;;;;;5.15;2.30;;;-0.90;99.90;;;;;;5032121;28;20042;-64
2021/12/25 02:47:05;;;;;;;7.45;2.30;;;-1.00;99.90;;;;;;5032501;28;20102;-64
2021/12/25 02:49:31;;;;;;;4.43;2.03;;;-1.00;99.90;;;;;;5031479;28;20037;-65
2021/12/25 02:51:56;;;;;;;6.13;1.95;;;-1.00;99.90;;;;;;5030983;28;20425;-64
2021/12/25 02:54:22;;;;;;;4.85;2.13;;;-1.10;99.90;;;;;;5031989;28;20041;-64
2021/12/25 02:56:48;;;;;;;3.88;2.05;;;-1.10;99.90;;;;;;5075577;23;20379;-66
2021/12/25 02:59:15;;;;;;;5.80;2.38;;;-1.10;99.90;;;;;;5012221;28;20480;-67
2021/12/25 03:01:41;;;;;;;5.18;2.20;;;-1.20;99.90;;;;;;5047549;28;20120;-67
2021/12/25 03:04:07;;;;;;;5.65;2.00;;;-1.20;99.90;;;;;;5014243;28;20116;-67
2021/12/25 03:15:02;;;;;;;2.80;1.90;;;-1.30;99.90;;;;;;5533089;23;20049;-67
2021/12/25 03:17:27;;;;;;;4.15;2.03;;;-1.40;99.90;;;;;;5051103;23;20398;-65
2021/12/25 03:19:55;;;;;;;4.40;2.10;;;-1.40;99.90;;;;;;5030154;28;20653;-65
2021/12/25 03:22:22;;;;;;;5.22;1.92;;;-1.50;99.90;;;;;;4996715;28;20045;-66
2021/12/25 03:24:47;;;;;;;3.72;1.92;;;-1.50;99.90;;;;;;5013634;28;20467;-66
2021/12/25 03:27:14;;;;;;;3.60;1.90;;;-1.50;99.90;;;;;;5031586;28;20037;-66
2021/12/25 03:29:42;;;;;;;2.88;2.00;;;-1.60;99.90;;;;;;5407783;22;20005;-65
2021/12/25 03:32:08;;;;;;;3.55;1.70;;;-1.60;99.90;;;;;;5026789;23;20631;-62
2021/12/25 03:34:34;;;;;;;3.58;1.88;;;-1.60;99.90;;;;;;5013795;28;20132;-62
2021/12/25 03:37:00;;;;;;;2.17;1.50;;;-1.70;99.90;;;;;;5031833;28;20549;-62
2021/12/25 03:39:26;;;;;;;4.07;1.85;;;-1.70;99.90;;;;;;5031856;28;20049;-62
2021/12/25 03:41:51;;;;;;;3.97;1.77;;;-1.80;99.90;;;;;;5032171;28;20124;-62
2021/12/25 03:44:17;;;;;;;2.40;1.70;;;-1.80;99.90;;;;;;5031457;28;20552;-62
2021/12/25 03:46:43;;;;;;;4.13;1.67;;;-1.80;99.90;;;;;;5031281;28;20034;-63
2021/12/25 03:49:24;;;;;;;2.13;1.65;;;-1.80;99.90;;;;;;5031609;28;20065;-64
2021/12/25 03:57:43;;;;;;;4.93;1.63;;;-1.90;99.90;;;;;;5031260;28;20464;-64
2021/12/25 04:00:13;;;;;;;4.72;1.90;;;-2.00;99.90;;;;;;5031573;28;20101;-64
2021/12/25 04:02:50;;;;;;;4.47;1.95;;;-2.00;99.90;;;;;;5031373;28;20037;-65
2021/12/25 04:05:19;;;;;;;3.90;1.80;;;-2.00;99.90;;;;;;5031469;28;20528;-64
2021/12/25 04:10:13;;;;;;;2.92;1.50;;;-2.10;99.90;;;;;;5031598;28;20106;-64
2021/12/25 04:12:39;;;;;;;4.82;1.75;;;-2.10;99.90;;;;;;5031307;28;20065;-65
2021/12/25 04:15:05;;;;;;;3.88;1.65;;;-2.20;99.90;;;;;;5031395;28;20091;-65
2021/12/25 04:17:31;;;;;;;4.05;2.25;;;-2.20;99.90;;;;;;5031367;28;20053;-65
2021/12/25 04:19:56;;;;;;;2.35;1.58;;;-2.20;99.90;;;;;;5031247;28;20029;-65
2021/12/25 04:22:31;;;;;;;3.10;1.70;;;-2.20;99.90;;;;;;5030956;28;20073;-64
2021/12/25 04:24:57;;;;;;;3.20;1.67;;;-2.20;99.90;;;;;;5031258;28;20519;-64
2021/12/25 04:27:23;;;;;;;3.88;1.70;;;-2.20;99.90;;;;;;5031006;28;20041;-65
2021/12/25 04:29:59;;;;;;;2.00;1.50;;;-2.20;99.90;;;;;;5031228;28;20036;-65
2021/12/25 05:02:23;;;;;;;3.83;1.92;;;-2.50;99.90;;;;;;5030475;28;20141;-65
2021/12/25 05:04:54;;;;;;;4.13;1.60;;;-2.60;99.90;;;;;;5030694;28;20045;-64
2021/12/25 05:07:20;;;;;;;;;;;-2.60;99.90;;;;;;5031551;28;20091;-65
2021/12/25 05:09:45;;;;;;;5.30;1.80;;;-2.60;99.90;;;;;;5031152;28;19932;-65
2021/12/25 05:12:11;;;;;;;3.25;1.80;;;-2.60;99.90;;;;;;5031168;28;20117;-64
2021/12/25 05:14:36;;;;;;;2.35;1.55;;;-2.60;99.90;;;;;;5030925;28;20140;-64
2021/12/25 05:17:02;;;;;;;3.22;1.67;;;-2.60;99.90;;;;;;5031177;28;20134;-64
2021/12/25 05:19:28;;;;;;;2.78;1.70;;;-2.60;99.90;;;;;;5031144;28;20034;-64
2021/12/25 05:21:53;;;;;;;2.28;1.55;;;-2.70;99.90;;;;;;5029955;28;20666;-64
2021/12/25 05:24:19;;;;;;;4.47;1.80;;;-2.70;99.90;;;;;;5031145;28;20041;-64
2021/12/25 05:26:45;;;;;;;5.05;1.80;;;-2.70;99.90;;;;;;5031233;28;20524;-63
2021/12/25 05:29:11;;;;;;;2.00;1.50;;;-2.70;99.90;;;;;;5030933;28;20037;-64
2021/12/25 05:31:37;;;;;;;3.70;1.90;;;-2.70;99.90;;;;;;5030880;28;20524;-64
2021/12/25 05:34:03;;;;;;;2.45;1.63;;;-2.70;99.90;;;;;;5031111;28;20164;-64
2021/12/25 05:36:29;;;;;;;5.05;2.95;;;-2.70;99.90;;;;;;5031074;28;20064;-63
2021/12/25 05:38:58;;;;;;;2.90;1.65;;;-2.70;99.90;;;;;;5029459;28;20046;-63
2021/12/25 05:41:29;;;;;;;3.00;1.70;;;-2.60;99.90;;;;;;5029575;28;20053;-64
2021/12/25 05:43:56;;;;;;;2.08;1.70;;;-2.70;99.90;;;;;;5030637;28;20107;-64
2021/12/25 05:46:22;;;;;;;2.10;1.67;;;-2.70;99.90;;;;;;5032639;28;20040;-64
2021/12/25 05:48:50;;;;;;;1.88;1.65;;;-2.70;99.90;;;;;;5034442;28;20124;-64
2021/12/25 05:51:17;;;;;;;3.03;1.70;;;-2.80;99.90;;;;;;5034045;28;20045;-63
2021/12/25 05:53:42;;;;;;;1.70;1.60;;;-2.70;99.90;;;;;;5033878;28;20489;-64
2021/12/25 05:56:08;;;;;;;4.30;1.80;;;-2.80;99.90;;;;;;5032566;28;20080;-64
2021/12/25 05:58:34;;;;;;;3.25;1.70;;;-2.80;99.90;;;;;;5034157;28;20065;-64
2021/12/25 06:00:59;;;;;;;3.33;1.80;;;-2.80;99.90;;;;;;5032469;28;20038;-63
2021/12/25 06:03:25;;;;;;;3.35;1.58;;;-2.80;99.90;;;;;;5032116;28;20473;-65
2021/12/25 06:05:51;;;;;;;2.83;1.80;;;-2.70;99.90;;;;;;5033055;28;20452;-64
2021/12/25 06:08:16;;;;;;;2.65;1.60;;;-2.80;99.90;;;;;;5033464;28;20088;-64
2021/12/25 06:10:43;;;;;;;2.50;1.60;;;-2.80;99.90;;;;;;5033116;28;20042;-63
2021/12/25 06:13:15;;;;;;;2.03;1.40;;;-2.80;99.90;;;;;;5033297;28;20041;-64
2021/12/25 06:15:42;;;;;;;2.50;1.60;;;-2.80;99.90;;;;;;5033386;28;20073;-63
2021/12/25 06:18:10;;;;;;;3.20;1.60;;;-2.90;99.90;;;;;;5033122;28;20041;-63
2021/12/25 06:20:35;;;;;;;4.10;1.60;;;-2.90;99.90;;;;;;5033468;28;20486;-63
2021/12/25 06:23:01;;;;;;;1.60;1.50;;;-2.90;99.90;;;;;;5032999;28;20040;-64
2021/12/25 06:25:27;;;;;;;3.10;1.67;;;-2.90;99.90;;;;;;5032942;28;20497;-63
2021/12/25 06:27:52;;;;;;;3.30;1.70;;;-3.00;99.90;;;;;;5033001;28;20054;-63
2021/12/25 06:30:18;;;;;;;1.50;1.40;;;-3.00;99.90;;;;;;5033088;28;20037;-64
2021/12/25 06:32:43;;;;;;;3.17;1.50;;;-2.90;99.90;;;;;;5032331;28;20036;-64
2021/12/25 06:35:09;;;;;;;2.42;1.38;;;-3.00;99.90;;;;;;5032665;28;20672;-64
2021/12/25 06:37:36;;;;;;;1.75;1.50;;;-3.00;99.90;;;;;;5032449;28;20502;-64
2021/12/25 06:40:03;;;;;;;1.55;1.45;;;-3.00;99.90;;;;;;5032787;28;20041;-64
2021/12/25 06:42:29;;;;;;;3.03;1.77;;;-3.00;99.90;;;;;;5032438;28;20448;-64
2021/12/25 06:44:56;;;;;;;2.17;1.55;;;-3.10;99.90;;;;;;5032645;28;20688;-64
2021/12/25 06:47:21;;;;;;;1.75;1.52;;;-3.10;99.90;;;;;;5032293;28;20523;-64
2021/12/25 06:49:47;;;;;;;6.00;1.83;;;-3.10;99.90;;;;;;5032498;28;20034;-64
2021/12/25 06:52:12;;;;;;;1.88;1.50;;;-3.10;99.90;;;;;;5032039;28;20037;-63
2021/12/25 06:54:38;;;;;;;2.80;1.42;;;-3.10;99.90;;;;;;5032349;28;20045;-65
2021/12/25 06:57:04;;;;;;;2.88;1.55;;;-3.10;99.90;;;;;;5027696;28;20050;-65
2021/12/25 06:59:30;;;;;;;5.53;1.55;;;-3.10;99.90;;;;;;5029234;28;20128;-64
2021/12/25 07:01:56;;;;;;;4.70;1.70;;;-3.10;99.90;;;;;;5028188;28;20060;-64
2021/12/25 07:04:22;;;;;;;4.88;1.58;;;-3.10;99.90;;;;;;5028051;28;20088;-64
2021/12/25 07:06:47;;;;;;;2.38;1.45;;;-3.20;99.90;;;;;;5028740;28;20568;-63
2021/12/25 07:09:13;;;;;;;2.70;1.50;;;-3.20;99.90;;;;;;5028703;28;20116;-64
2021/12/25 07:11:38;;;;;;;2.90;1.50;;;-3.20;99.90;;;;;;5029304;28;20048;-63
2021/12/25 07:14:05;;;;;;;1.63;1.40;;;-3.20;99.90;;;;;;5028606;28;20040;-64
2021/12/25 07:16:32;;;;;;;1.30;1.20;;;-3.30;99.90;;;;;;5028763;28;20053;-64
2021/12/25 07:18:58;;;;;;;1.40;1.20;;;-3.30;99.90;;;;;;5027518;28;20120;-64
2021/12/25 07:21:23;;;;;;;2.08;1.50;;;-3.20;99.90;;;;;;5028687;28;20636;-64
2021/12/25 07:23:49;;;;;;;1.38;1.27;;;-3.30;99.90;;;;;;5028721;28;20041;-63
2021/12/25 07:26:18;;;;;;;2.95;1.30;;;-3.30;99.90;;;;;;5028718;28;20563;-64
2021/12/25 07:28:48;;;;;;;3.67;1.40;;;-3.40;99.90;;;;;;5028461;28;20041;-64
2021/12/25 07:31:14;;;;;;;1.83;1.42;;;-3.30;99.90;;;;;;5028220;28;20034;-64
2021/12/25 07:33:40;;;;;;;2.22;1.55;;;-3.30;99.90;;;;;;5028422;28;20073;-64
2021/12/25 07:36:09;;;;;;;1.42;1.13;;;-3.30;99.90;;;;;;5028254;28;20130;-64
2021/12/25 07:38:35;;;;;;;1.30;1.20;;;-3.40;99.90;;;;;;5028652;28;20045;-64
2021/12/25 07:41:00;;;;;;;2.35;1.50;;;-3.40;99.80;;;;;;5028661;28;20171;-64
2021/12/25 07:43:26;;;;;;;2.38;1.40;;;-3.30;99.60;;;;;;5027886;28;20047;-63
2021/12/25 07:45:52;;;;;;;1.65;1.30;;;-3.30;99.90;;;;;;5028265;28;20135;-64
2021/12/25 07:48:20;;;;;;;1.75;1.27;;;-3.30;99.70;;;;;;5028148;28;20390;-63
2021/12/25 07:50:47;;;;;;;1.70;1.40;;;-3.30;99.80;;;;;;5027910;28;20045;-64
2021/12/25 07:53:13;;;;;;;2.03;1.30;;;-3.30;99.90;;;;;;5028004;28;20416;-63
2021/12/25 07:55:38;;;;;;;1.63;1.40;;;-3.20;99.10;;;;;;5027888;28;20169;-64
2021/12/25 07:58:06;;;;;;;2.50;1.40;;;-3.30;99.90;;;;;;5028119;28;20728;-64
2021/12/25 08:00:31;;;;;;;5.10;1.67;;;-3.30;99.90;;;;;;5028608;28;20095;-65
2021/12/25 08:02:57;;;;;;;2.28;2.00;;;-3.30;99.80;;;;;;5028202;28;20045;-64
2021/12/25 08:05:22;;;;;;;3.15;1.60;;;-3.40;99.90;;;;;;5028120;28;20152;-63
2021/12/25 08:07:49;;;;;;;2.83;1.50;;;-3.30;99.80;;;;;;5027921;28;20120;-63
2021/12/25 08:10:17;;;;;;;2.65;1.50;;;-3.30;99.70;;;;;;5027566;28;20597;-64
2021/12/25 08:12:52;;;;;;;1.50;1.40;;;-3.30;99.70;;;;;;5027548;28;20041;-63
2021/12/25 08:15:20;;;;;;;4.72;1.40;;;-3.30;99.90;;;;;;5028407;28;20117;-64
2021/12/25 08:17:46;;;;;;;1.90;1.63;;;-3.30;99.80;;;;;;5025443;28;20418;-65
2021/12/25 08:20:13;;;;;;;2.13;1.30;;;-3.20;99.80;;;;;;5028216;28;20673;-66
2021/12/25 08:22:40;;;;;;;1.40;1.30;;;-3.30;99.90;;;;;;5030174;28;20041;-65
2021/12/25 08:25:06;;;;;;;2.63;1.48;;;-3.20;99.90;;;;;;5029081;28;20041;-65
2021/12/25 08:27:32;;;;;;;3.83;1.70;;;-3.20;99.90;;;;;;5027636;28;20041;-66
2021/12/25 08:29:58;;;;;;;4.05;1.50;;;-3.30;99.90;;;;;;5027810;28;20048;-65
2021/12/25 08:32:24;;;;;;;1.92;1.50;;;-3.30;99.90;;;;;;5028257;28;20037;-65
2021/12/25 08:34:50;;;;;;;3.20;1.60;;;-3.30;99.90;;;;;;5028362;28;20464;-66
2021/12/25 08:37:19;;;;;;;1.48;1.38;;;-3.20;99.90;;;;;;5028322;28;20654;-65
2021/12/25 08:39:44;;;;;;;2.45;1.67;;;-3.20;99.90;;;;;;5027142;28;20111;-65
2021/12/25 08:42:10;;;;;;;3.78;1.40;;;-3.20;99.90;;;;;;5030082;28;20120;-65
2021/12/25 08:44:54;;;;;;;1.70;1.40;;;-3.20;99.90;;;;;;5028318;28;20075;-65
2021/12/25 08:47:20;;;;;;;4.43;1.40;;;-3.20;99.90;;;;;;5029079;28;20113;-65
2021/12/25 08:49:46;;;;;;;1.58;1.25;;;-3.20;99.90;;;;;;5030586;28;20038;-65
2021/12/25 08:52:15;;;;;;;1.67;1.30;;;-3.20;99.90;;;;;;5028865;28;20111;-66
2021/12/25 08:54:43;;;;;;;3.38;1.50;;;-3.10;99.90;;;;;;5030268;28;20512;-65
2021/12/25 08:57:10;;;;;;;2.22;1.40;;;-3.20;99.90;;;;;;5029090;28;20096;-65
2021/12/25 08:59:38;;;;;;;2.03;1.38;;;-3.10;99.90;;;;;;5030283;28;20050;-66
2021/12/25 09:02:09;;;;;;;2.03;1.40;;;-3.10;99.90;;;;;;5028966;28;20091;-66
2021/12/25 09:04:36;;;;;;;1.60;1.50;;;-3.10;99.90;;;;;;5030036;28;20041;-66
2021/12/25 09:07:03;;;;;;;3.60;1.45;;;-3.10;99.90;;;;;;5030297;28;20069;-66
2021/12/25 09:09:28;;;;;;;3.75;1.60;;;-3.10;99.90;;;;;;5030072;28;20069;-69
2021/12/25 09:11:54;;;;;;;2.25;1.50;;;-3.10;99.90;;;;;;5029594;28;20517;-66
2021/12/25 09:14:20;;;;;;;1.90;1.45;;;-3.00;99.90;;;;;;5029851;28;20044;-66
2021/12/25 09:16:46;;;;;;;3.10;1.50;;;-3.10;99.90;;;;;;5028631;28;20045;-66
2021/12/25 09:19:11;;;;;;;3.63;1.30;;;-3.00;99.90;;;;;;5030000;28;20116;-66
2021/12/25 09:21:37;;;;;;;4.45;1.42;;;-2.90;99.90;;;;;;5028889;28;20113;-67
2021/12/25 09:24:03;;;;;;;5.10;1.70;;;-2.90;99.90;;;;;;5029397;28;20037;-66
2021/12/25 09:26:29;;;;;;;4.65;1.50;;;-2.80;99.90;;;;;;5029471;28;20649;-66
2021/12/25 09:28:54;;;;;;;2.47;1.40;;;-2.80;99.90;;;;;;5028457;28;20398;-66
2021/12/25 09:31:20;;;;;;;2.60;1.63;;;-2.80;99.90;;;;;;5020671;28;20038;-66
2021/12/25 09:33:46;;;;;;;5.97;1.70;;;-2.80;99.90;;;;;;5030820;23;20033;-68
2021/12/25 09:36:11;;;;;;;6.65;1.60;;;-2.80;99.90;;;;;;5654901;23;20053;-68
2021/12/25 09:38:37;;;;;;;3.15;1.50;;;-2.80;99.90;;;;;;4995000;28;20573;-69
2021/12/25 09:41:04;;;;;;;3.03;1.50;;;-2.80;99.90;;;;;;5011631;28;20046;-68
2021/12/25 09:43:31;;;;;;;1.67;1.48;;;-2.80;99.90;;;;;;5003060;28;20041;-68
2021/12/25 09:45:57;;;;;;;6.85;1.92;;;-2.70;99.90;;;;;;5028055;28;20072;-68
2021/12/25 09:48:24;;;;;;;3.58;1.45;;;-2.70;99.90;;;;;;5027314;28;20046;-69
2021/12/25 09:50:50;;;;;;;4.28;1.98;;;-2.60;99.90;;;;;;5027298;28;20037;-70
2021/12/25 09:53:18;;;;;;;7.32;1.77;;;-2.60;99.90;;;;;;5009007;28;20042;-69
2021/12/25 09:55:46;;;;;;;5.00;1.67;;;-2.50;99.90;;;;;;4992074;28;20077;-69
2021/12/25 09:58:13;;;;;;;2.38;1.52;;;-2.40;99.40;;;;;;5008435;28;20034;-69
2021/12/25 10:00:51;;;;;;;1.75;1.60;;;-2.40;99.90;;;;;;5022856;28;20034;-68
2021/12/25 10:03:19;;;;;;;1.60;1.50;;;-2.40;99.80;;;;;;5024027;28;20045;-72
2021/12/25 10:09:28;;;;;;;3.40;1.73;;;-2.30;99.90;;;;;;5030116;28;20499;-71
2021/12/25 10:12:08;;;;;;;3.22;1.70;;;-2.20;99.90;;;;;;5027913;28;20045;-72
2021/12/25 10:17:58;;;;;;;1.75;1.40;;;-2.20;99.60;;;;;;5281443;23;20060;-69
2021/12/25 10:20:33;;;;;;;1.90;1.60;;;-2.10;99.40;;;;;;5011356;28;20124;-68
2021/12/25 10:23:14;;;;;;;4.10;1.65;;;-2.00;99.10;;;;;;5014929;28;20052;-68
2021/12/25 10:25:53;;;;;;;5.18;1.67;;;-2.00;98.70;;;;;;5011330;28;20098;-66
2021/12/25 10:28:40;;;;;;;1.80;1.33;;;-1.90;98.40;;;;;;5399289;23;22288;-65
2021/12/25 10:31:16;;;;;;;3.60;1.70;;;-1.90;97.90;;;;;;4973056;28;20054;-65
2021/12/25 10:33:49;;;;;;;4.35;1.67;;;-1.90;98.30;;;;;;5024417;28;20034;-67
2021/12/25 10:36:29;;;;;;;2.65;1.60;;;-1.80;98.70;;;;;;5026526;28;20084;-67
2021/12/25 10:39:05;;;;;;;6.13;1.70;;;-1.80;97.30;;;;;;5012517;28;20033;-67
2021/12/25 10:41:35;;;;;;;3.47;1.42;;;-1.70;98.10;;;;;;5011443;28;20042;-67
2021/12/25 10:44:58;;;;;;;5.53;1.30;;;-1.70;97.80;;;;;;5002930;28;20024;-67
2021/12/25 10:48:10;;;;;;;3.22;1.58;;;-1.60;97.70;;;;;;4989028;28;20349;-65
2021/12/25 10:50:39;;;;;;;3.25;1.50;;;-1.60;95.30;;;;;;5010743;28;20481;-65
2021/12/25 10:53:24;;;;;;;3.80;1.50;;;-1.60;96.40;;;;;;5010930;28;20122;-65
2021/12/25 10:55:50;;;;;;;4.30;1.85;;;-1.60;97.00;;;;;;5012625;28;20089;-67
2021/12/25 10:58:24;;;;;;;1.83;1.42;;;-1.60;97.10;;;;;;5010702;28;20049;-67
2021/12/25 11:01:43;;;;;;;4.63;1.52;;;-1.50;96.20;;;;;;5036272;28;20089;-67
2021/12/25 11:04:49;;;;;;;3.22;1.60;;;-1.50;95.80;;;;;;5414651;22;20136;-66
2021/12/25 11:07:17;;;;;;;3.53;1.70;;;-1.40;96.50;;;;;;5047127;28;20045;-65
2021/12/25 11:10:11;;;;;;;3.95;1.60;;;-1.40;97.50;;;;;;5014146;28;20669;-66
2021/12/25 11:12:37;;;;;;;4.45;1.63;;;-1.30;97.10;;;;;;5014582;28;20513;-66
2021/12/25 11:15:12;;;;;;;4.82;1.67;;;-1.30;97.50;;;;;;5032004;28;20052;-66
2021/12/25 11:18:32;;;;;;;4.43;1.70;;;-1.30;96.10;;;;;;5043888;28;20085;-66
2021/12/25 11:21:52;;;;;;;5.97;1.60;;;-1.30;96.00;;;;;;5318853;23;20060;-67
2021/12/25 11:26:59;;;;;;;1.92;1.63;;;-1.20;95.40;;;;;;5397503;22;20491;-65
2021/12/25 11:29:27;;;;;;;1.63;1.40;;;-1.30;94.90;;;;;;5013499;28;20048;-65
2021/12/25 11:34:50;;;;;;;1.88;1.50;;;-1.20;93.70;;;;;;5469668;23;20053;-67
2021/12/25 11:37:16;;;;;;;1.98;1.60;;;-1.20;94.40;;;;;;5013410;28;20041;-67
2021/12/25 11:39:44;;;;;;;3.38;1.50;;;-1.20;93.70;;;;;;5013531;28;20128;-67
2021/12/25 11:42:12;;;;;;;1.65;1.52;;;-1.10;94.10;;;;;;4997430;28;20041;-67
2021/12/25 11:44:50;;;;;;;3.03;1.70;;;-1.10;93.20;;;;;;5012601;28;20133;-69
2021/12/25 11:47:31;;;;;;;6.18;1.83;;;-1.10;94.60;;;;;;5031165;28;20253;-69
2021/12/25 11:50:01;;;;;;;2.00;1.70;;;-1.00;95.70;;;;;;5029920;28;20041;-69
2021/12/25 11:52:32;;;;;;;5.32;1.65;;;-1.00;95.90;;;;;;5029557;28;20503;-69
2021/12/25 12:06:15;;;;;;;1.80;1.60;;;-1.00;94.10;;;;;;5229477;23;20544;-66
2021/12/25 12:08:53;;;;;;;4.72;1.70;;;-1.00;93.70;;;;;;5012904;28;20673;-66
2021/12/25 12:11:24;;;;;;;3.00;1.92;;;-1.00;93.10;;;;;;5013150;28;20103;-67
2021/12/25 12:14:12;;;;;;;2.78;1.52;;;-0.90;93.10;;;;;;5031736;28;20046;-66
2021/12/25 12:16:48;;;;;;;3.90;1.50;;;-0.90;93.40;;;;;;4977130;28;20041;-67
2021/12/25 12:19:29;;;;;;;3.30;1.42;;;-0.90;93.80;;;;;;5009586;28;20049;-67
2021/12/25 12:21:56;;;;;;;2.10;1.60;;;-0.90;93.60;;;;;;5029118;23;20505;-64
2021/12/25 12:24:41;;;;;;;2.38;1.50;;;-0.90;92.40;;;;;;5011342;28;20117;-64
2021/12/25 12:27:07;;;;;;;4.13;1.45;;;-0.90;93.30;;;;;;4993102;28;20042;-63
2021/12/25 12:29:51;;;;;;;2.72;1.50;;;-0.90;91.70;;;;;;5025921;28;20037;-63
2021/12/25 12:32:20;;;;;;;2.92;1.60;;;-0.90;92.10;;;;;;5006246;28;20093;-63
2021/12/25 12:34:53;;;;;;;2.47;1.45;;;-0.90;92.30;;;;;;4991419;28;20129;-64
2021/12/25 12:37:23;;;;;;;4.05;1.60;;;-0.90;92.70;;;;;;4957837;28;20042;-64
2021/12/25 12:40:04;;;;;;;3.47;1.45;;;-0.90;92.90;;;;;;4990972;28;20560;-64
2021/12/25 12:42:47;;;;;;;2.28;1.55;;;-0.90;92.90;;;;;;5006083;28;20050;-63
2021/12/25 12:45:18;;;;;;;3.00;1.40;;;-0.90;91.50;;;;;;4991057;28;20051;-64
2021/12/25 12:48:08;;;;;;;1.83;1.42;;;-0.80;92.80;;;;;;4973511;28;20057;-64
2021/12/25 12:50:34;;;;;;;3.15;1.60;;;-0.90;91.70;;;;;;4973577;28;20046;-64
2021/12/25 12:53:03;;;;;;;2.10;1.30;;;-0.80;91.60;;;;;;4990908;28;20030;-64
2021/12/25 12:55:31;;;;;;;1.90;1.40;;;-0.80;90.60;;;;;;4973148;28;20549;-64
2021/12/25 12:58:19;;;;;;;4.70;1.60;;;-0.80;89.70;;;;;;4973310;28;20038;-64
2021/12/25 13:00:57;;;;;;;3.13;1.77;;;-0.80;90.10;;;;;;4973517;28;20121;-64
2021/12/25 13:03:24;;;;;;;2.83;1.80;;;-0.80;91.80;;;;;;4991037;28;20042;-64
2021/12/25 13:05:57;;;;;;;3.05;1.70;;;-0.80;90.50;;;;;;5007718;28;20050;-63
2021/12/25 13:08:28;;;;;;;2.55;1.42;;;-0.80;90.90;;;;;;5010263;28;20041;-64
2021/12/25 13:11:03;;;;;;;4.13;1.55;;;-0.80;92.40;;;;;;5010174;28;20030;-64
2021/12/25 13:13:37;;;;;;;5.00;1.85;;;-0.80;91.80;;;;;;5010003;28;20038;-64
2021/12/25 13:16:12;;;;;;;5.50;1.83;;;-0.90;92.90;;;;;;4992454;28;20080;-64
2021/12/25 13:18:40;;;;;;;2.55;1.70;;;-0.80;92.80;;;;;;5010202;28;20130;-63
2021/12/25 13:21:09;;;;;;;4.75;1.85;;;-0.80;93.80;;;;;;5009913;28;20060;-63
2021/12/25 13:23:47;;;;;;;1.95;1.30;;;-0.80;92.50;;;;;;4992530;28;20046;-64
2021/12/25 13:26:15;;;;;;;2.25;1.60;;;-0.80;92.10;;;;;;5009905;28;20053;-64
2021/12/25 13:28:43;;;;;;;3.25;1.60;;;-0.80;91.00;;;;;;5010138;28;20034;-64
2021/12/25 13:31:20;;;;;;;3.95;1.77;;;-0.80;92.50;;;;;;5009868;28;20038;-64
2021/12/25 13:33:51;;;;;;;10.15;2.10;;;-0.80;92.50;;;;;;5010036;28;20088;-64
2021/12/25 13:36:25;;;;;;;2.38;1.65;;;-0.80;92.30;;;;;;5009970;28;20087;-63
2021/12/25 13:39:00;;;;;;;2.15;1.50;;;-0.80;92.20;;;;;;5009771;28;20459;-64
2021/12/25 13:41:33;;;;;;;2.20;1.70;;;-0.80;91.10;;;;;;4991957;28;20142;-64
2021/12/25 13:44:12;;;;;;;2.20;1.70;;;-0.80;93.00;;;;;;5009551;28;20046;-63
2021/12/25 13:46:48;;;;;;;5.97;2.13;;;-0.80;94.50;;;;;;4990941;28;20103;-64
2021/12/25 13:49:32;;;;;;;4.68;1.77;;;-0.80;93.90;;;;;;4992014;28;20045;-64
2021/12/25 13:52:05;;;;;;;3.33;1.80;;;-0.80;93.50;;;;;;5009679;28;20454;-63
2021/12/25 13:54:31;;;;;;;3.75;1.90;;;-0.90;93.30;;;;;;5009629;28;20038;-63
2021/12/25 13:56:57;;;;;;;2.50;1.90;;;-0.80;91.70;;;;;;5009764;28;20053;-64
2021/12/25 13:59:24;;;;;;;4.30;1.90;;;-0.80;91.60;;;;;;4992191;28;20137;-64
2021/12/25 14:02:24;;;;;;;4.20;1.70;;;-0.90;93.30;;;;;;4992248;28;20564;-64
2021/12/25 14:04:53;;;;;;;4.82;1.60;;;-0.80;92.30;;;;;;4966829;28;20406;-64
2021/12/25 14:07:21;;;;;;;2.40;1.50;;;-0.90;93.30;;;;;;5011209;28;20060;-64
2021/12/25 14:09:54;;;;;;;2.63;1.50;;;-0.90;93.40;;;;;;5013234;28;20042;-63
2021/12/25 14:12:22;;;;;;;3.08;1.40;;;-0.90;93.30;;;;;;4995488;28;20046;-63
2021/12/25 14:14:48;;;;;;;2.42;1.58;;;-0.90;91.70;;;;;;5013015;28;20125;-64
2021/12/25 14:17:14;;;;;;;4.10;1.50;;;-0.90;91.60;;;;;;5013204;28;20033;-64
2021/12/25 14:19:39;;;;;;;4.38;1.70;;;-1.00;92.40;;;;;;5013156;28;20095;-64
2021/12/25 14:22:05;;;;;;;3.42;1.52;;;-1.00;93.60;;;;;;5012792;28;20049;-64
2021/12/25 14:24:48;;;;;;;6.03;1.90;;;-1.00;92.30;;;;;;5012820;28;20038;-64
2021/12/25 14:27:21;;;;;;;5.93;2.13;;;-1.00;91.90;;;;;;5013184;28;20052;-64
2021/12/25 14:29:47;;;;;;;4.03;2.05;;;-1.00;92.90;;;;;;4995408;28;20382;-64
2021/12/25 14:32:28;;;;;;;7.13;1.90;;;-1.00;92.50;;;;;;4995441;28;20486;-64
2021/12/25 14:34:55;;;;;;;3.80;1.80;;;-1.10;93.40;;;;;;4995144;28;20037;-64
2021/12/25 14:37:38;;;;;;;5.28;1.75;;;-1.10;94.70;;;;;;4995614;28;20128;-64
2021/12/25 14:40:17;;;;;;;4.35;1.77;;;-1.20;94.40;;;;;;5012704;28;20038;-64
2021/12/25 14:42:50;;;;;;;2.95;1.98;;;-1.20;94.50;;;;;;5012633;28;20042;-64
2021/12/25 14:45:17;;;;;;;3.25;1.83;;;-1.20;95.30;;;;;;4995006;28;20065;-64
2021/12/25 14:47:55;;;;;;;3.47;2.20;;;-1.10;93.90;;;;;;5013042;28;20038;-64
2021/12/25 14:50:32;;;;;;;6.28;2.30;;;-1.00;93.80;;;;;;5011465;28;20526;-63
2021/12/25 14:53:18;;;;;;;12.88;1.80;;;-1.00;93.50;;;;;;4995096;28;20422;-64